Time;durP1;ratioP1;P1;durP2;ratioP2;P2;SDS_P1;SDS_P2;PMS_P1;PMS_P2;Temp;Humidity;BMP_temperature;BMP_pressure;BME280_temperature;BME280_humidity;BME280_pressure;Samples;Min_cycle;Max_cycle;Signal;HPM_P1;HPM_P2
2022/11/30 00:00:57;;;;;;;11.80;7.35;;;7.50;99.90;;;;;;5039534;28;20017;-83
2022/11/30 00:03:23;;;;;;;8.82;5.45;;;7.60;99.90;;;;;;5030049;28;20105;-83
2022/11/30 00:05:48;;;;;;;12.48;7.38;;;7.50;99.90;;;;;;5016538;28;20060;-83
2022/11/30 00:08:17;;;;;;;12.25;7.28;;;7.60;99.90;;;;;;5011600;28;20072;-83
2022/11/30 00:10:42;;;;;;;9.18;5.97;;;7.60;99.90;;;;;;5010152;28;20026;-83
2022/11/30 00:13:08;;;;;;;11.40;7.32;;;7.60;99.90;;;;;;5033433;28;20029;-83
2022/11/30 00:15:35;;;;;;;10.55;6.70;;;7.60;99.90;;;;;;5038864;28;20449;-83
2022/11/30 00:18:01;;;;;;;11.30;7.10;;;7.60;99.90;;;;;;5018306;28;20033;-82
2022/11/30 00:20:30;;;;;;;12.73;7.65;;;7.70;99.90;;;;;;5036820;28;20096;-82
2022/11/30 00:22:57;;;;;;;14.75;8.35;;;7.70;99.90;;;;;;5036572;28;20084;-84
2022/11/30 00:25:27;;;;;;;12.27;8.32;;;7.70;99.90;;;;;;5026754;28;20060;-82
2022/11/30 00:27:52;;;;;;;11.48;7.10;;;7.70;99.90;;;;;;5020661;28;20071;-82
2022/11/30 00:30:18;;;;;;;13.38;7.72;;;7.70;99.90;;;;;;5020871;28;20541;-82
2022/11/30 00:32:44;;;;;;;13.88;8.00;;;7.70;99.90;;;;;;5008016;28;20030;-81
2022/11/30 00:35:09;;;;;;;11.57;7.43;;;7.60;99.90;;;;;;5038659;28;20029;-82
2022/11/30 00:37:35;;;;;;;12.93;7.78;;;7.60;99.90;;;;;;5019802;28;20075;-82
2022/11/30 00:40:01;;;;;;;11.13;7.00;;;7.70;99.90;;;;;;5014417;28;20034;-82
2022/11/30 00:42:26;;;;;;;10.15;5.88;;;7.70;99.90;;;;;;5037148;28;20026;-82
2022/11/30 00:44:52;;;;;;;12.35;7.95;;;7.70;99.90;;;;;;5038215;28;20032;-83
2022/11/30 00:47:18;;;;;;;15.07;8.02;;;7.70;99.90;;;;;;5020459;28;20100;-82
2022/11/30 00:49:43;;;;;;;12.88;7.88;;;7.80;99.90;;;;;;5036820;28;20018;-82
2022/11/30 00:52:09;;;;;;;15.27;9.27;;;7.80;99.90;;;;;;5037767;28;20029;-83
2022/11/30 00:54:35;;;;;;;11.40;7.40;;;7.80;99.90;;;;;;5018098;28;20044;-83
2022/11/30 00:57:03;;;;;;;9.13;6.13;;;7.80;99.90;;;;;;5019921;28;20411;-83
2022/11/30 00:59:29;;;;;;;13.35;8.10;;;7.80;99.90;;;;;;5007962;28;20468;-83
2022/11/30 01:01:55;;;;;;;15.15;10.10;;;7.80;99.90;;;;;;5010023;28;20100;-82
2022/11/30 01:04:20;;;;;;;12.02;7.85;;;7.80;99.90;;;;;;5019655;28;20025;-82
2022/11/30 01:06:46;;;;;;;13.57;8.73;;;7.80;99.90;;;;;;5036662;28;20085;-83
2022/11/30 01:09:12;;;;;;;12.98;7.80;;;7.80;99.90;;;;;;5034522;28;20022;-83
2022/11/30 01:11:37;;;;;;;12.82;7.78;;;7.90;99.90;;;;;;5019759;28;20025;-82
2022/11/30 01:14:03;;;;;;;12.77;8.02;;;7.90;99.90;;;;;;5032632;28;20017;-82
2022/11/30 01:16:31;;;;;;;13.82;7.90;;;8.00;99.90;;;;;;5036443;28;20399;-82
2022/11/30 01:18:57;;;;;;;14.52;7.72;;;7.90;99.90;;;;;;5007905;28;20056;-82
2022/11/30 01:21:25;;;;;;;14.80;8.50;;;8.00;99.90;;;;;;5032198;28;20026;-82
2022/11/30 01:23:51;;;;;;;12.55;7.90;;;8.00;99.90;;;;;;5020293;28;20482;-82
2022/11/30 01:26:18;;;;;;;14.75;8.30;;;8.00;99.90;;;;;;5020252;28;20026;-82
2022/11/30 01:28:48;;;;;;;20.80;10.85;;;8.00;99.90;;;;;;5019686;28;20013;-82
2022/11/30 01:31:14;;;;;;;17.25;9.50;;;8.00;99.90;;;;;;5035598;28;20470;-82
2022/11/30 01:33:40;;;;;;;12.55;7.55;;;8.00;99.90;;;;;;5012356;28;20040;-83
2022/11/30 01:36:13;;;;;;;14.35;7.50;;;8.00;99.90;;;;;;5013051;28;20052;-84
2022/11/30 01:38:41;;;;;;;13.15;7.88;;;8.00;99.90;;;;;;4999678;28;20026;-83
2022/11/30 01:41:09;;;;;;;13.02;7.50;;;8.00;99.90;;;;;;5000122;28;20038;-83
2022/11/30 01:43:43;;;;;;;15.10;8.32;;;8.10;99.90;;;;;;5000566;28;20029;-83
2022/11/30 01:46:35;;;;;;;15.45;8.73;;;8.10;99.90;;;;;;5000276;28;20106;-84
2022/11/30 01:49:14;;;;;;;17.02;8.40;;;8.10;99.90;;;;;;4999969;28;20430;-83
2022/11/30 01:51:43;;;;;;;13.48;7.57;;;8.10;99.90;;;;;;5009069;28;20048;-83
2022/11/30 01:54:11;;;;;;;15.23;8.50;;;8.00;99.90;;;;;;5019843;28;20024;-84
2022/11/30 01:56:46;;;;;;;14.48;7.47;;;8.10;99.90;;;;;;5019331;28;20489;-84
2022/11/30 01:59:13;;;;;;;12.60;7.05;;;8.10;99.90;;;;;;5036686;28;20033;-84
2022/11/30 02:01:38;;;;;;;12.18;6.10;;;8.00;99.90;;;;;;5013301;28;20029;-83
2022/11/30 02:04:13;;;;;;;12.27;6.75;;;8.00;99.90;;;;;;5017050;28;20120;-83
2022/11/30 02:06:39;;;;;;;9.95;5.57;;;8.00;99.90;;;;;;5031405;28;21770;-83
2022/11/30 02:09:05;;;;;;;9.60;5.15;;;8.00;99.90;;;;;;5015251;28;20064;-84
2022/11/30 02:11:30;;;;;;;7.97;4.90;;;7.90;99.90;;;;;;5019205;28;20036;-83
2022/11/30 02:14:11;;;;;;;6.95;4.22;;;7.90;99.90;;;;;;5036426;28;20036;-84
2022/11/30 02:16:57;;;;;;;10.57;4.80;;;7.90;99.90;;;;;;5034750;28;20096;-84
2022/11/30 02:19:34;;;;;;;8.48;4.47;;;7.90;99.90;;;;;;5027144;28;20077;-85
2022/11/30 02:22:18;;;;;;;6.75;4.22;;;7.90;99.90;;;;;;5029851;28;20026;-85
2022/11/30 02:24:50;;;;;;;8.18;4.72;;;7.90;99.90;;;;;;5019665;28;20022;-84
2022/11/30 02:27:33;;;;;;;7.07;3.92;;;7.80;99.90;;;;;;5037324;28;20393;-85
2022/11/30 02:30:07;;;;;;;8.27;3.88;;;7.80;99.90;;;;;;5037120;28;20018;-84
2022/11/30 02:33:08;;;;;;;6.88;3.70;;;7.80;99.90;;;;;;5019538;28;20124;-83
2022/11/30 02:35:39;;;;;;;5.10;3.05;;;7.90;99.90;;;;;;5026042;28;20048;-82
2022/11/30 02:38:05;;;;;;;5.78;2.85;;;7.90;99.90;;;;;;5010037;28;20038;-82
2022/11/30 02:40:31;;;;;;;7.75;4.60;;;7.90;99.90;;;;;;5041099;28;20032;-82
2022/11/30 02:43:01;;;;;;;8.70;4.80;;;7.90;99.90;;;;;;5040810;28;20419;-83
2022/11/30 02:45:40;;;;;;;8.50;4.55;;;7.80;99.90;;;;;;5041090;28;20496;-83
2022/11/30 02:48:12;;;;;;;7.75;4.60;;;7.80;99.90;;;;;;5016834;28;20164;-83
2022/11/30 02:50:44;;;;;;;8.02;4.82;;;7.70;99.90;;;;;;5038872;28;20109;-82
2022/11/30 02:53:10;;;;;;;5.30;3.47;;;7.70;99.90;;;;;;5018122;28;20029;-82
2022/11/30 02:55:36;;;;;;;6.85;4.07;;;7.80;99.90;;;;;;5039905;28;20474;-81
2022/11/30 02:58:02;;;;;;;7.22;3.90;;;7.80;99.90;;;;;;5017816;28;20033;-82
2022/11/30 03:00:27;;;;;;;5.50;3.58;;;7.80;99.90;;;;;;5036275;28;20390;-82
2022/11/30 03:02:53;;;;;;;8.00;4.47;;;7.80;99.90;;;;;;5039855;28;20371;-82
2022/11/30 03:05:19;;;;;;;7.00;3.88;;;7.80;99.90;;;;;;5021778;28;20064;-82
2022/11/30 03:07:45;;;;;;;7.25;3.92;;;7.80;99.90;;;;;;5039696;28;20037;-82
2022/11/30 03:10:11;;;;;;;6.13;3.75;;;7.90;99.90;;;;;;5040592;28;20045;-81
2022/11/30 03:12:37;;;;;;;7.30;4.28;;;7.90;99.90;;;;;;5018255;28;20057;-85
2022/11/30 03:15:04;;;;;;;6.05;3.88;;;7.90;99.90;;;;;;5021746;28;20029;-84
2022/11/30 03:17:30;;;;;;;7.70;4.72;;;7.90;99.90;;;;;;5034033;28;20576;-84
2022/11/30 03:19:56;;;;;;;6.88;4.13;;;7.90;99.90;;;;;;5039575;28;20033;-83
2022/11/30 03:22:21;;;;;;;5.38;3.40;;;7.90;99.90;;;;;;5021880;28;20513;-84
2022/11/30 03:24:47;;;;;;;7.00;4.13;;;7.90;99.90;;;;;;5040106;28;20025;-83
2022/11/30 03:27:13;;;;;;;6.15;3.78;;;7.80;99.90;;;;;;5039394;28;20375;-84
2022/11/30 03:29:38;;;;;;;7.35;3.92;;;7.90;99.90;;;;;;5039171;28;20033;-83
2022/11/30 03:32:05;;;;;;;6.20;3.97;;;7.80;99.90;;;;;;5036391;28;20109;-82
2022/11/30 03:34:30;;;;;;;8.07;4.60;;;7.80;99.90;;;;;;5021498;28;20390;-82
2022/11/30 03:36:56;;;;;;;5.15;3.47;;;7.80;99.90;;;;;;5038744;28;20120;-82
2022/11/30 03:39:23;;;;;;;6.20;3.88;;;7.80;99.90;;;;;;5011695;28;20040;-82
2022/11/30 03:41:49;;;;;;;6.63;3.50;;;7.80;99.90;;;;;;5021659;28;20029;-82
2022/11/30 03:44:15;;;;;;;6.97;4.53;;;7.80;99.90;;;;;;5019698;28;20080;-82
2022/11/30 03:46:40;;;;;;;8.05;4.03;;;7.80;99.90;;;;;;5039132;28;20022;-82
2022/11/30 03:49:06;;;;;;;8.27;3.92;;;7.80;99.90;;;;;;5037457;28;20017;-82
2022/11/30 03:51:32;;;;;;;6.35;3.65;;;7.80;99.90;;;;;;5034167;28;20068;-82
2022/11/30 03:53:57;;;;;;;7.75;4.55;;;7.80;99.90;;;;;;5033265;28;20080;-84
2022/11/30 03:56:23;;;;;;;6.93;4.45;;;7.80;99.90;;;;;;5019878;28;20029;-84
2022/11/30 03:58:50;;;;;;;8.13;4.38;;;7.80;99.90;;;;;;5019309;28;20040;-84
2022/11/30 04:01:20;;;;;;;6.20;3.78;;;7.90;99.90;;;;;;5016293;28;20037;-84
2022/11/30 04:03:47;;;;;;;5.38;3.05;;;7.80;99.90;;;;;;5038632;28;20033;-84
2022/11/30 04:06:12;;;;;;;7.40;4.32;;;7.80;99.90;;;;;;5013766;28;20053;-83
2022/11/30 04:08:39;;;;;;;6.82;4.30;;;7.80;99.90;;;;;;5037804;28;20053;-84
2022/11/30 04:11:06;;;;;;;6.53;3.97;;;7.80;99.90;;;;;;5039104;28;20029;-84
2022/11/30 04:13:32;;;;;;;6.93;3.75;;;7.80;99.90;;;;;;5035176;28;20116;-84
2022/11/30 04:15:58;;;;;;;8.55;4.45;;;7.80;99.90;;;;;;5020899;28;20034;-84
2022/11/30 04:18:27;;;;;;;6.30;3.90;;;7.80;99.90;;;;;;5035647;28;20026;-84
2022/11/30 04:20:54;;;;;;;7.55;3.83;;;7.90;99.90;;;;;;5035330;28;20017;-84
2022/11/30 04:23:21;;;;;;;7.22;3.97;;;7.90;99.90;;;;;;5021597;28;20026;-85
2022/11/30 04:25:48;;;;;;;6.30;3.53;;;7.90;99.90;;;;;;5028949;28;20064;-84
2022/11/30 04:28:15;;;;;;;9.02;4.88;;;7.90;99.90;;;;;;5021208;28;20089;-84
2022/11/30 04:30:41;;;;;;;7.88;4.55;;;7.90;99.90;;;;;;5021527;28;20033;-83
2022/11/30 04:33:06;;;;;;;10.00;4.45;;;7.90;99.90;;;;;;5021279;28;20053;-84
2022/11/30 04:35:33;;;;;;;8.02;4.93;;;8.00;99.90;;;;;;5038672;28;20022;-82
2022/11/30 04:38:00;;;;;;;7.80;4.38;;;7.90;99.90;;;;;;5038743;28;20033;-82
2022/11/30 04:40:25;;;;;;;8.48;4.93;;;7.90;99.90;;;;;;5038863;28;20482;-82
2022/11/30 04:42:51;;;;;;;6.65;3.78;;;7.90;99.90;;;;;;5025956;28;20064;-82
2022/11/30 04:45:17;;;;;;;7.82;4.50;;;7.90;99.90;;;;;;5035553;28;20036;-83
2022/11/30 04:47:43;;;;;;;7.20;3.80;;;7.80;99.90;;;;;;5032262;28;20056;-83
2022/11/30 04:50:09;;;;;;;5.88;3.15;;;7.80;99.90;;;;;;5038499;28;20026;-83
2022/11/30 04:52:35;;;;;;;6.35;3.85;;;7.80;99.90;;;;;;5027254;28;20049;-83
2022/11/30 04:55:03;;;;;;;5.78;3.53;;;7.70;99.90;;;;;;5038690;28;20029;-83
2022/11/30 04:57:29;;;;;;;8.32;4.30;;;7.70;99.90;;;;;;5020858;28;20036;-82
2022/11/30 04:59:54;;;;;;;7.97;4.45;;;7.80;99.90;;;;;;5020508;28;20060;-82
2022/11/30 05:02:20;;;;;;;6.13;3.42;;;7.80;99.90;;;;;;5033277;28;20402;-81
2022/11/30 05:04:45;;;;;;;7.05;3.97;;;7.80;99.90;;;;;;5022835;28;20394;-81
2022/11/30 05:07:11;;;;;;;7.60;4.05;;;7.70;99.90;;;;;;5005936;28;20021;-82
2022/11/30 05:09:37;;;;;;;6.22;3.67;;;7.70;99.90;;;;;;5016239;28;20103;-82
2022/11/30 05:12:02;;;;;;;7.57;4.13;;;7.60;99.90;;;;;;5033566;28;20060;-82
2022/11/30 05:14:29;;;;;;;5.53;3.63;;;7.60;99.90;;;;;;5019596;28;20033;-82
2022/11/30 05:16:54;;;;;;;4.68;3.00;;;7.60;99.90;;;;;;5037291;28;20615;-82
2022/11/30 05:19:20;;;;;;;6.40;3.60;;;7.50;99.90;;;;;;5029366;28;20030;-82
2022/11/30 05:21:46;;;;;;;7.72;4.35;;;7.50;99.90;;;;;;5024040;28;20049;-83
2022/11/30 05:24:11;;;;;;;7.53;4.43;;;7.50;99.90;;;;;;5036604;28;20061;-83
2022/11/30 05:26:37;;;;;;;6.47;3.78;;;7.50;99.90;;;;;;5032490;28;20041;-83
2022/11/30 05:29:04;;;;;;;7.25;4.03;;;7.50;99.90;;;;;;5019550;28;20029;-81
2022/11/30 05:31:30;;;;;;;7.65;4.05;;;7.60;99.90;;;;;;5026287;28;20490;-80
2022/11/30 05:33:56;;;;;;;7.63;4.43;;;7.60;99.90;;;;;;5016996;28;20104;-80
2022/11/30 05:36:22;;;;;;;9.43;4.70;;;7.60;99.90;;;;;;5031613;28;20034;-80
2022/11/30 05:38:47;;;;;;;8.15;4.47;;;7.60;99.90;;;;;;5034879;28;20040;-81
2022/11/30 05:41:13;;;;;;;7.30;3.85;;;7.60;99.90;;;;;;5035437;28;20116;-83
2022/11/30 05:43:39;;;;;;;7.03;4.00;;;7.60;99.90;;;;;;5036082;28;20057;-82
2022/11/30 05:46:07;;;;;;;5.78;3.50;;;7.70;99.90;;;;;;5037038;28;20025;-84
2022/11/30 05:48:33;;;;;;;6.75;4.35;;;7.70;99.90;;;;;;5037617;28;20081;-85
2022/11/30 05:51:11;;;;;;;6.07;3.85;;;7.70;99.90;;;;;;5019793;28;20105;-85
2022/11/30 05:53:37;;;;;;;5.25;3.35;;;7.70;99.90;;;;;;5020233;28;20104;-85
2022/11/30 05:56:08;;;;;;;7.32;3.88;;;7.70;99.90;;;;;;5015004;28;20080;-85
2022/11/30 05:58:34;;;;;;;4.63;2.95;;;7.60;99.90;;;;;;5000454;28;20034;-85
2022/11/30 06:01:00;;;;;;;6.53;3.50;;;7.60;99.90;;;;;;5017601;28;20149;-85
2022/11/30 06:03:30;;;;;;;5.93;3.88;;;7.60;99.90;;;;;;5017764;28;20065;-86
2022/11/30 06:05:56;;;;;;;10.65;4.53;;;7.50;99.90;;;;;;5009932;28;20021;-85
2022/11/30 06:08:22;;;;;;;5.80;3.70;;;7.40;99.90;;;;;;5027379;28;20030;-85
2022/11/30 06:10:48;;;;;;;6.20;3.75;;;7.40;99.90;;;;;;5029925;28;20069;-85
2022/11/30 06:13:14;;;;;;;6.40;3.78;;;7.40;99.90;;;;;;5000331;28;20025;-84
2022/11/30 06:15:40;;;;;;;6.55;3.55;;;7.40;99.90;;;;;;5005413;28;20366;-84
2022/11/30 06:18:08;;;;;;;5.68;3.60;;;7.40;99.90;;;;;;5019738;28;20060;-85
2022/11/30 06:20:33;;;;;;;7.63;3.95;;;7.40;99.90;;;;;;5036971;28;20104;-82
2022/11/30 06:22:59;;;;;;;7.78;4.53;;;7.30;99.90;;;;;;5019244;28;20056;-84
2022/11/30 06:25:26;;;;;;;8.18;4.35;;;7.30;99.90;;;;;;5037013;28;20028;-84
2022/11/30 06:27:52;;;;;;;5.57;3.33;;;7.30;99.90;;;;;;5019439;28;20045;-84
2022/11/30 06:30:18;;;;;;;5.85;3.30;;;7.40;99.90;;;;;;5025675;28;20536;-84
2022/11/30 06:32:49;;;;;;;6.60;3.72;;;7.40;99.90;;;;;;5037078;28;20025;-84
2022/11/30 06:35:15;;;;;;;4.60;2.83;;;7.40;99.90;;;;;;5019217;28;20018;-84
2022/11/30 06:37:41;;;;;;;5.65;3.53;;;7.50;99.90;;;;;;5005618;28;20038;-83
2022/11/30 06:40:08;;;;;;;6.85;3.85;;;7.50;99.90;;;;;;5019373;28;20022;-84
2022/11/30 06:42:35;;;;;;;6.78;4.55;;;7.50;99.90;;;;;;5019094;28;20100;-84
2022/11/30 06:45:01;;;;;;;6.15;3.60;;;7.50;99.90;;;;;;5036919;28;20025;-84
2022/11/30 06:47:27;;;;;;;8.60;4.65;;;7.50;99.90;;;;;;5019027;28;20053;-84
2022/11/30 06:49:53;;;;;;;6.95;4.40;;;7.50;99.90;;;;;;5036630;28;20025;-83
2022/11/30 06:52:19;;;;;;;5.95;3.80;;;7.50;99.90;;;;;;5019203;28;20025;-84
2022/11/30 06:54:45;;;;;;;5.47;4.00;;;7.50;99.90;;;;;;5036339;28;20474;-84
2022/11/30 06:57:10;;;;;;;7.13;4.20;;;7.50;99.90;;;;;;5004403;28;20110;-84
2022/11/30 06:59:41;;;;;;;5.25;3.97;;;7.50;99.90;;;;;;5017224;28;20059;-84
2022/11/30 07:02:11;;;;;;;6.20;4.20;;;7.50;99.90;;;;;;4999558;28;20121;-83
2022/11/30 07:04:37;;;;;;;8.48;4.15;;;7.60;99.90;;;;;;5025914;28;20025;-83
2022/11/30 07:07:03;;;;;;;7.68;3.88;;;7.60;99.90;;;;;;5019089;28;20036;-83
2022/11/30 07:09:29;;;;;;;6.57;4.00;;;7.60;99.90;;;;;;5036697;28;20018;-83
2022/11/30 07:11:54;;;;;;;6.53;3.50;;;7.60;99.90;;;;;;5019094;28;20064;-82
2022/11/30 07:14:20;;;;;;;5.47;3.85;;;7.60;99.90;;;;;;5018969;28;20052;-82
2022/11/30 07:16:46;;;;;;;6.80;3.97;;;7.60;99.90;;;;;;5018811;28;20049;-81
2022/11/30 07:19:11;;;;;;;4.97;3.28;;;7.60;99.90;;;;;;5036479;28;20080;-81
2022/11/30 07:21:37;;;;;;;6.50;3.88;;;7.60;99.90;;;;;;5014073;28;20026;-81
2022/11/30 07:26:47;;;;;;;5.25;3.83;;;7.50;99.90;;;;;;5040413;28;20040;-85
2022/11/30 07:29:12;;;;;;;5.22;3.50;;;7.60;99.90;;;;;;5022295;28;20021;-84
2022/11/30 07:31:38;;;;;;;6.70;4.10;;;7.60;99.90;;;;;;5036667;28;20026;-86
2022/11/30 07:34:06;;;;;;;5.93;3.80;;;7.60;99.90;;;;;;5021265;28;20500;-83
2022/11/30 07:36:33;;;;;;;4.25;3.13;;;7.60;99.90;;;;;;5014970;28;20125;-86
2022/11/30 07:38:59;;;;;;;7.38;3.63;;;7.60;99.90;;;;;;5038357;28;20021;-86
2022/11/30 07:41:25;;;;;;;8.18;3.85;;;7.60;99.90;;;;;;5033417;28;20061;-85
2022/11/30 07:43:51;;;;;;;4.95;3.33;;;7.60;99.90;;;;;;5038676;28;20541;-85
2022/11/30 07:46:17;;;;;;;5.80;3.75;;;7.60;99.90;;;;;;5018389;28;20099;-82
2022/11/30 07:48:44;;;;;;;7.15;4.38;;;7.60;99.90;;;;;;5037141;28;20041;-83
2022/11/30 07:51:13;;;;;;;6.55;4.28;;;7.60;99.90;;;;;;5020520;28;20029;-84
2022/11/30 07:53:39;;;;;;;7.15;4.68;;;7.60;99.90;;;;;;5019057;28;20048;-85
2022/11/30 07:56:07;;;;;;;5.45;3.65;;;7.60;99.90;;;;;;5034395;28;20421;-85
2022/11/30 07:58:33;;;;;;;7.28;4.72;;;7.60;99.90;;;;;;5035345;28;20126;-85
2022/11/30 08:01:06;;;;;;;6.80;3.78;;;7.60;99.90;;;;;;5020995;28;20052;-85
2022/11/30 08:03:32;;;;;;;5.20;3.20;;;7.70;99.90;;;;;;5014553;28;20009;-68
2022/11/30 08:06:00;;;;;;;7.35;5.03;;;7.70;99.90;;;;;;5031442;28;20033;-68
2022/11/30 08:08:29;;;;;;;7.20;4.57;;;7.80;99.90;;;;;;5038741;28;20025;-70
2022/11/30 08:10:59;;;;;;;5.97;3.75;;;7.80;99.90;;;;;;5039439;28;20089;-69
2022/11/30 08:13:25;;;;;;;6.13;3.83;;;7.80;99.90;;;;;;5039139;28;20052;-69
2022/11/30 08:15:51;;;;;;;5.95;4.05;;;7.80;99.90;;;;;;5039225;28;20049;-70
2022/11/30 08:18:17;;;;;;;6.05;3.38;;;7.90;99.90;;;;;;5038085;28;20030;-69
2022/11/30 08:20:42;;;;;;;6.60;4.22;;;7.90;99.90;;;;;;5037617;28;20454;-68
2022/11/30 08:23:08;;;;;;;5.95;4.32;;;7.90;99.90;;;;;;5036818;28;20043;-68
2022/11/30 08:25:34;;;;;;;5.50;3.67;;;7.90;99.90;;;;;;5018992;28;20029;-68
2022/11/30 08:28:00;;;;;;;5.53;3.17;;;7.90;99.90;;;;;;5021294;28;20105;-68
2022/11/30 08:30:26;;;;;;;7.97;4.70;;;7.90;99.90;;;;;;5037993;28;20485;-68
2022/11/30 08:32:51;;;;;;;8.25;4.53;;;8.00;99.90;;;;;;5036724;28;20615;-68
2022/11/30 08:35:17;;;;;;;6.32;4.32;;;8.00;99.90;;;;;;5037515;28;20021;-68
2022/11/30 08:37:43;;;;;;;6.00;3.78;;;8.00;99.90;;;;;;5006671;28;20053;-68
2022/11/30 08:40:09;;;;;;;6.90;4.63;;;8.00;99.90;;;;;;5019155;28;20026;-69
2022/11/30 08:42:35;;;;;;;6.30;4.30;;;8.00;99.90;;;;;;5018577;28;20021;-69
2022/11/30 08:45:01;;;;;;;7.20;3.90;;;8.00;99.90;;;;;;5022851;28;20113;-70
2022/11/30 08:47:28;;;;;;;5.95;4.15;;;8.00;99.90;;;;;;5023161;28;20061;-71
2022/11/30 08:49:55;;;;;;;5.85;3.90;;;8.10;99.90;;;;;;5045652;28;20066;-71
2022/11/30 08:52:21;;;;;;;6.30;4.32;;;8.10;99.90;;;;;;5040199;28;20021;-70
2022/11/30 08:54:46;;;;;;;6.18;4.05;;;8.10;99.90;;;;;;5000362;28;20620;-70
2022/11/30 08:57:16;;;;;;;9.07;4.47;;;8.10;99.90;;;;;;5027923;28;20619;-68
2022/11/30 08:59:42;;;;;;;6.80;4.35;;;8.20;99.90;;;;;;5012051;28;20038;-68
2022/11/30 09:02:10;;;;;;;7.72;5.03;;;8.10;99.90;;;;;;5036794;28;20029;-69
2022/11/30 09:04:36;;;;;;;6.35;4.22;;;8.20;99.90;;;;;;5034736;28;20033;-68
2022/11/30 09:07:02;;;;;;;6.43;3.88;;;8.20;99.90;;;;;;5037385;28;20157;-69
2022/11/30 09:09:28;;;;;;;8.00;4.60;;;8.20;99.90;;;;;;5036577;28;20486;-70
2022/11/30 09:11:53;;;;;;;6.78;4.80;;;8.30;99.90;;;;;;5035664;28;20080;-70
2022/11/30 09:14:19;;;;;;;8.00;4.50;;;8.30;99.90;;;;;;5037254;28;20496;-70
2022/11/30 09:16:45;;;;;;;5.32;3.88;;;8.30;99.90;;;;;;5021982;28;20041;-71
2022/11/30 09:19:10;;;;;;;5.22;4.25;;;8.30;99.90;;;;;;5036622;28;20056;-70
2022/11/30 09:21:36;;;;;;;6.60;4.40;;;8.40;99.90;;;;;;5036909;28;20029;-70
2022/11/30 09:24:02;;;;;;;6.75;4.43;;;8.40;99.90;;;;;;5038423;28;20068;-70
2022/11/30 09:26:27;;;;;;;7.50;4.70;;;8.40;99.90;;;;;;5037082;28;20087;-70
2022/11/30 09:28:53;;;;;;;6.70;3.75;;;8.50;99.90;;;;;;5036358;28;20025;-70
2022/11/30 09:31:24;;;;;;;5.82;3.55;;;8.50;99.90;;;;;;5035899;28;20022;-70
2022/11/30 09:33:51;;;;;;;6.60;3.58;;;8.50;99.90;;;;;;5036065;28;20018;-70
2022/11/30 09:36:19;;;;;;;6.95;4.40;;;8.50;99.90;;;;;;5034274;28;20033;-70
2022/11/30 09:38:45;;;;;;;5.63;3.80;;;8.60;99.90;;;;;;5032277;28;20105;-70
2022/11/30 09:41:33;;;;;;;7.07;4.80;;;8.50;99.90;;;;;;5033742;28;20033;-70
2022/11/30 09:44:10;;;;;;;5.10;3.78;;;8.50;99.90;;;;;;5030757;28;20033;-70
2022/11/30 09:47:01;;;;;;;6.05;3.60;;;8.60;99.90;;;;;;5010799;28;20031;-70
2022/11/30 09:49:33;;;;;;;6.97;4.38;;;8.60;99.90;;;;;;5017904;28;20124;-70
2022/11/30 09:52:03;;;;;;;5.70;4.07;;;8.70;99.90;;;;;;5037447;28;20454;-70
2022/11/30 09:54:47;;;;;;;5.10;3.67;;;8.70;99.90;;;;;;5034771;28;20031;-69
2022/11/30 09:57:29;;;;;;;5.15;3.55;;;8.80;99.90;;;;;;5014668;28;20030;-70
2022/11/30 09:59:56;;;;;;;6.32;3.92;;;8.80;99.90;;;;;;5034645;28;20104;-70
2022/11/30 10:02:27;;;;;;;4.70;3.33;;;8.80;99.90;;;;;;5029207;28;20025;-70
2022/11/30 10:04:53;;;;;;;4.38;3.08;;;8.90;99.90;;;;;;5025478;28;20042;-70
2022/11/30 10:07:33;;;;;;;5.93;3.95;;;8.90;99.90;;;;;;5026811;28;20513;-71
2022/11/30 10:10:22;;;;;;;6.55;4.30;;;8.90;99.90;;;;;;5027705;28;20497;-72
2022/11/30 10:12:59;;;;;;;7.03;4.13;;;8.90;99.90;;;;;;5038860;28;20433;-71
2022/11/30 10:15:47;;;;;;;7.03;4.63;;;8.90;99.90;;;;;;5027106;28;20025;-71
2022/11/30 10:18:38;;;;;;;5.70;4.00;;;8.90;99.90;;;;;;5015007;28;20877;-71
2022/11/30 10:21:44;;;;;;;7.72;4.28;;;8.90;99.90;;;;;;4996747;28;20065;-71
2022/11/30 10:24:22;;;;;;;7.72;4.32;;;8.90;99.90;;;;;;5035801;28;20029;-71
2022/11/30 10:26:56;;;;;;;7.00;4.40;;;8.90;99.90;;;;;;5028999;28;20120;-71
2022/11/30 10:29:27;;;;;;;5.80;3.53;;;8.80;99.90;;;;;;5038274;28;20026;-71
2022/11/30 10:31:57;;;;;;;8.75;4.47;;;8.80;99.90;;;;;;5031886;28;20045;-71
2022/11/30 10:34:29;;;;;;;6.38;3.90;;;8.80;99.90;;;;;;5017750;28;20026;-72
2022/11/30 10:37:34;;;;;;;7.35;3.70;;;8.80;99.90;;;;;;5031523;28;20033;-72
2022/11/30 10:40:05;;;;;;;6.03;3.90;;;8.80;99.90;;;;;;5034692;28;20094;-72
2022/11/30 10:42:43;;;;;;;5.57;2.95;;;8.80;99.90;;;;;;5014518;28;20524;-72
2022/11/30 10:45:16;;;;;;;6.03;3.97;;;8.80;99.90;;;;;;5030102;28;20029;-72
2022/11/30 10:47:52;;;;;;;6.15;3.25;;;8.80;99.90;;;;;;5035733;28;20071;-73
2022/11/30 10:50:26;;;;;;;4.18;2.83;;;8.90;99.90;;;;;;5029347;28;20022;-72
2022/11/30 10:52:54;;;;;;;5.55;3.42;;;8.90;99.90;;;;;;5024356;28;20026;-71
2022/11/30 10:55:25;;;;;;;4.50;2.80;;;9.00;99.90;;;;;;5025796;28;20026;-72
2022/11/30 10:58:02;;;;;;;3.92;2.80;;;9.00;99.90;;;;;;5018242;28;20523;-71
2022/11/30 11:00:28;;;;;;;4.50;2.60;;;9.10;99.90;;;;;;5040541;28;20034;-71
2022/11/30 11:02:54;;;;;;;4.88;2.80;;;9.10;99.90;;;;;;5040545;28;20411;-71
2022/11/30 11:05:27;;;;;;;4.60;2.92;;;9.00;99.90;;;;;;5040168;28;20482;-71
2022/11/30 11:08:00;;;;;;;3.45;2.63;;;9.00;99.90;;;;;;5031660;28;20057;-71
2022/11/30 11:10:29;;;;;;;4.38;2.92;;;9.10;99.90;;;;;;5002794;28;20033;-71
2022/11/30 11:12:58;;;;;;;3.15;2.42;;;9.10;99.90;;;;;;5003170;28;20025;-71
2022/11/30 11:15:29;;;;;;;4.15;2.58;;;9.10;99.90;;;;;;5020195;28;20022;-72
2022/11/30 11:18:20;;;;;;;3.30;2.40;;;9.10;99.90;;;;;;5020403;28;20030;-71
2022/11/30 11:20:45;;;;;;;4.25;2.58;;;9.20;99.90;;;;;;5028617;28;20029;-71
2022/11/30 11:23:37;;;;;;;3.83;2.60;;;9.20;99.90;;;;;;5022121;28;20446;-72
2022/11/30 11:26:05;;;;;;;4.43;2.53;;;9.20;99.90;;;;;;5022011;28;20029;-71
2022/11/30 11:28:31;;;;;;;3.55;2.33;;;9.20;99.90;;;;;;5039862;28;20022;-71
2022/11/30 11:30:58;;;;;;;4.75;2.90;;;9.20;99.90;;;;;;5022092;28;20497;-72
2022/11/30 11:33:28;;;;;;;3.88;2.38;;;9.20;99.90;;;;;;5039846;28;20520;-71
2022/11/30 11:36:06;;;;;;;3.92;2.95;;;9.10;99.90;;;;;;5039749;28;20406;-71
2022/11/30 11:38:41;;;;;;;4.25;2.53;;;9.20;99.90;;;;;;5010376;28;20045;-71
2022/11/30 11:41:16;;;;;;;4.35;2.47;;;9.20;99.90;;;;;;5021740;28;20018;-72
2022/11/30 11:44:00;;;;;;;5.03;2.88;;;9.30;99.90;;;;;;5039901;28;20022;-72
2022/11/30 11:46:26;;;;;;;4.93;3.08;;;9.30;99.90;;;;;;5039453;28;20037;-72
2022/11/30 11:48:58;;;;;;;5.05;3.20;;;9.20;99.90;;;;;;5039680;28;20497;-72
2022/11/30 11:51:32;;;;;;;5.63;3.60;;;9.20;99.90;;;;;;5038927;28;20117;-72
2022/11/30 11:54:17;;;;;;;5.80;3.20;;;9.20;99.90;;;;;;5036896;28;20064;-72
2022/11/30 11:56:43;;;;;;;5.03;2.45;;;9.20;99.90;;;;;;5032389;28;20029;-72
2022/11/30 11:59:09;;;;;;;4.25;3.13;;;9.20;99.90;;;;;;5021679;28;20033;-73
2022/11/30 12:01:45;;;;;;;4.43;2.97;;;9.20;99.90;;;;;;5039064;28;20393;-72
2022/11/30 12:04:29;;;;;;;3.30;2.72;;;9.20;99.90;;;;;;5038447;28;20486;-73
2022/11/30 12:06:56;;;;;;;6.20;4.22;;;9.20;99.90;;;;;;5019284;28;20091;-73
2022/11/30 12:09:29;;;;;;;5.45;3.90;;;9.20;99.90;;;;;;5037457;28;20036;-73
2022/11/30 12:11:54;;;;;;;5.60;3.13;;;9.20;99.90;;;;;;5038785;28;20088;-72
2022/11/30 12:14:20;;;;;;;6.47;3.85;;;9.20;99.90;;;;;;5030233;28;20026;-73
2022/11/30 12:16:46;;;;;;;5.15;3.47;;;9.20;99.90;;;;;;5018934;28;20155;-72
2022/11/30 12:19:16;;;;;;;7.38;4.57;;;9.20;99.90;;;;;;5019086;28;20030;-73
2022/11/30 12:22:19;;;;;;;5.95;3.17;;;9.20;99.90;;;;;;5019139;28;20025;-72
2022/11/30 12:24:51;;;;;;;7.25;3.80;;;9.20;99.90;;;;;;5036340;28;20445;-71
2022/11/30 12:27:43;;;;;;;9.02;4.05;;;9.20;99.90;;;;;;5021078;28;20061;-71
2022/11/30 12:30:23;;;;;;;6.45;4.63;;;9.30;99.90;;;;;;5014542;28;20033;-71
2022/11/30 12:33:09;;;;;;;6.95;4.22;;;9.20;99.90;;;;;;5019262;28;20501;-71
2022/11/30 12:35:35;;;;;;;5.40;3.55;;;9.20;99.90;;;;;;5020594;28;20029;-71
2022/11/30 12:38:13;;;;;;;6.28;4.35;;;9.10;99.90;;;;;;5021926;28;20108;-70
2022/11/30 12:41:01;;;;;;;8.60;4.40;;;9.10;99.90;;;;;;5020410;28;20391;-73
2022/11/30 12:43:51;;;;;;;7.45;4.35;;;9.10;99.90;;;;;;5030056;28;20029;-71
2022/11/30 12:46:52;;;;;;;6.13;4.22;;;9.10;99.90;;;;;;5036877;28;20084;-70
2022/11/30 12:49:18;;;;;;;7.43;4.10;;;9.10;99.90;;;;;;5018517;28;20021;-70
2022/11/30 12:52:18;;;;;;;9.40;5.10;;;9.00;99.90;;;;;;5037497;28;20457;-70
2022/11/30 12:55:04;;;;;;;7.18;4.65;;;9.10;99.90;;;;;;5038790;28;20013;-71
2022/11/30 12:57:37;;;;;;;7.72;4.78;;;9.10;99.90;;;;;;5044815;28;20433;-71
2022/11/30 13:00:14;;;;;;;8.00;5.13;;;9.10;99.90;;;;;;5018429;28;20018;-70
2022/11/30 13:02:50;;;;;;;8.25;5.05;;;9.10;99.90;;;;;;5024924;28;20394;-70
2022/11/30 13:05:47;;;;;;;7.70;5.40;;;9.10;99.90;;;;;;5037975;28;20076;-70
2022/11/30 13:08:43;;;;;;;6.25;3.83;;;9.10;99.90;;;;;;5029577;28;20045;-70
2022/11/30 13:11:35;;;;;;;7.15;4.75;;;9.10;99.90;;;;;;5020071;28;20115;-70